createdAt,value
2023-10-03T00:00:07.933Z,45.5
2023-10-03T00:05:38.461Z,45.5
2023-10-03T00:11:07.848Z,45.5
2023-10-03T00:16:38.347Z,45.5
2023-10-03T00:22:07.804Z,45.5
2023-10-03T00:27:38.286Z,45.5
2023-10-03T00:33:08.804Z,45.5
2023-10-03T00:38:38.292Z,45.5
2023-10-03T00:44:08.722Z,45.5
2023-10-03T00:55:08.698Z,45.5
2023-10-03T01:00:39.217Z,45.5
2023-10-03T01:06:09.658Z,45.5
2023-10-03T01:11:39.210Z,45.5
2023-10-03T01:17:09.613Z,45.5
2023-10-03T01:22:40.095Z,45.5
2023-10-03T01:28:09.616Z,45.5
2023-10-03T01:33:40.068Z,45.5
2023-10-03T01:39:10.530Z,45.5
2023-10-03T01:44:40.102Z,45.5
2023-10-03T02:01:10.477Z,45.5
2023-10-03T02:06:40.990Z,45.5
2023-10-03T02:12:11.434Z,45
2023-10-03T02:17:40.980Z,45
2023-10-03T02:23:11.466Z,45
2023-10-03T02:28:42.281Z,45
2023-10-03T02:34:11.369Z,45
2023-10-03T02:39:41.852Z,45
2023-10-03T02:45:11.344Z,45
2023-10-03T02:50:41.847Z,45.5
2023-10-03T02:56:12.305Z,45.5
2023-10-03T03:01:41.872Z,45
2023-10-03T03:07:12.257Z,45
2023-10-03T03:12:42.744Z,45.5
2023-10-03T03:18:12.313Z,45.5
2023-10-03T03:23:42.763Z,45.5
2023-10-03T03:29:13.188Z,45.5
2023-10-03T03:34:41.686Z,45
2023-10-03T03:40:12.168Z,45
2023-10-03T03:45:42.692Z,45
2023-10-03T03:51:12.146Z,45
2023-10-03T03:56:42.821Z,45
2023-10-03T04:02:12.226Z,45
2023-10-03T04:07:42.682Z,45
2023-10-03T04:13:13.195Z,45
2023-10-03T04:18:42.729Z,45
2023-10-03T04:24:13.628Z,45
2023-10-03T04:29:43.654Z,45.5
2023-10-03T04:35:13.158Z,45
2023-10-03T04:40:43.595Z,45
2023-10-03T04:46:14.099Z,45
2023-10-03T04:51:43.561Z,45
2023-10-03T04:57:14.018Z,45
2023-10-03T05:02:43.582Z,45
2023-10-03T05:08:13.997Z,44.5
2023-10-03T05:13:44.652Z,44.5
2023-10-03T05:19:14.111Z,44.5
2023-10-03T05:24:44.598Z,44.5
2023-10-03T05:30:15.049Z,44.5
2023-10-03T05:35:44.567Z,44.5
2023-10-03T05:41:15.042Z,44.5
2023-10-03T05:46:45.514Z,44.5
2023-10-03T05:52:15.960Z,44.5
2023-10-03T05:57:46.446Z,44.5
2023-10-03T06:03:15.992Z,44.5
2023-10-03T06:08:46.424Z,44
2023-10-03T06:14:16.871Z,44
2023-10-03T06:19:46.369Z,44
2023-10-03T06:25:16.828Z,44
2023-10-03T06:30:47.318Z,44
2023-10-03T06:36:16.809Z,44
2023-10-03T06:41:47.320Z,44
2023-10-03T06:47:17.753Z,44
2023-10-03T06:52:47.252Z,44
2023-10-03T06:58:17.729Z,44
2023-10-03T07:03:48.380Z,44
2023-10-03T07:09:17.739Z,44
2023-10-03T07:14:48.217Z,44
2023-10-03T07:20:17.666Z,44
2023-10-03T07:25:48.137Z,44
2023-10-03T07:31:18.678Z,44
2023-10-03T07:36:48.112Z,44
2023-10-03T07:42:18.571Z,44
2023-10-03T07:47:48.138Z,44
2023-10-03T07:53:18.540Z,44
2023-10-03T07:58:49.235Z,44
2023-10-03T08:04:18.511Z,44
2023-10-03T08:09:49.071Z,44
2023-10-03T08:15:19.576Z,44.5
2023-10-03T08:20:49.102Z,44.5
2023-10-03T08:26:19.526Z,44.5
2023-10-03T08:31:50.012Z,44.5
2023-10-03T08:37:19.511Z,44.5
2023-10-03T08:42:49.973Z,44.5
2023-10-03T08:48:19.574Z,44.5
2023-10-03T08:53:49.936Z,44.5
2023-10-03T08:59:20.392Z,44.5
2023-10-03T09:04:49.941Z,44.5
2023-10-03T09:10:20.361Z,44.5
2023-10-03T09:15:50.828Z,44.5
2023-10-03T09:21:20.445Z,44.5
2023-10-03T09:26:50.923Z,44.5
2023-10-03T09:32:21.354Z,44.5
2023-10-03T09:37:50.879Z,44.5
2023-10-03T09:43:21.310Z,45
2023-10-03T09:48:51.890Z,45
2023-10-03T09:54:21.283Z,45
2023-10-03T09:59:51.779Z,45
2023-10-03T10:05:22.261Z,45
2023-10-03T10:10:51.740Z,45
2023-10-03T10:16:22.529Z,45
2023-10-03T10:21:52.709Z,45
2023-10-03T10:27:22.176Z,45
2023-10-03T10:32:52.765Z,45
2023-10-03T10:38:23.159Z,45
2023-10-03T10:43:52.611Z,45.5
2023-10-03T10:49:23.084Z,45.5
2023-10-03T10:54:52.729Z,45
2023-10-03T11:00:22.441Z,45
2023-10-03T11:05:52.700Z,45
2023-10-03T11:11:23.175Z,45.5
2023-10-03T11:16:52.649Z,45
2023-10-03T11:22:23.177Z,45
2023-10-03T11:33:23.123Z,45
2023-10-03T11:38:53.609Z,45
2023-10-03T11:44:24.142Z,45
2023-10-03T11:49:53.609Z,45.5
2023-10-03T11:55:24.122Z,45.5
2023-10-03T12:00:53.664Z,45.5
2023-10-03T12:06:24.081Z,45.5
2023-10-03T12:11:54.610Z,45.5
2023-10-03T12:17:24.042Z,45.5
2023-10-03T12:22:54.503Z,45.5
2023-10-03T12:28:25.067Z,45.5
2023-10-03T12:33:54.611Z,45.5
2023-10-03T12:39:25.117Z,45
2023-10-03T12:44:55.654Z,45.5
2023-10-03T12:50:25.115Z,45.5
2023-10-03T12:55:55.532Z,45.5
2023-10-03T13:01:26.339Z,45.5
2023-10-03T13:06:55.490Z,45.5
2023-10-03T13:12:25.991Z,45.5
2023-10-03T13:17:56.527Z,45.5
2023-10-03T13:23:25.928Z,45.5
2023-10-03T13:28:56.672Z,45.5
2023-10-03T13:34:26.028Z,45.5
2023-10-03T13:39:56.517Z,45.5
2023-10-03T13:45:26.989Z,45.5
2023-10-03T13:50:56.644Z,45.5
2023-10-03T13:56:26.958Z,45.5
2023-10-03T14:01:57.413Z,45.5
2023-10-03T14:07:26.896Z,45.5
2023-10-03T14:12:57.463Z,45.5
2023-10-03T14:18:28.016Z,45.5
2023-10-03T14:29:29.292Z,46
2023-10-03T14:34:57.444Z,46
2023-10-03T14:40:27.903Z,46
2023-10-03T14:45:57.428Z,46
2023-10-03T14:51:27.865Z,46
2023-10-03T14:56:58.418Z,46
2023-10-03T15:02:27.886Z,46
2023-10-03T15:07:58.293Z,46
2023-10-03T15:13:28.787Z,46
2023-10-03T15:18:58.309Z,46
2023-10-03T15:24:28.754Z,46.5
2023-10-03T15:29:58.295Z,47
2023-10-03T15:35:28.722Z,47.5
2023-10-03T15:40:59.202Z,47.5
2023-10-03T15:46:28.792Z,47.5
2023-10-03T15:51:59.234Z,48
2023-10-03T15:57:29.763Z,48.5
2023-10-03T16:02:59.403Z,49
2023-10-03T16:08:29.700Z,48.5
2023-10-03T16:14:00.188Z,49
2023-10-03T16:19:29.653Z,48.5
2023-10-03T16:25:00.146Z,48.5
2023-10-03T16:30:30.631Z,48
2023-10-03T16:36:00.178Z,48
2023-10-03T16:41:30.588Z,48
2023-10-03T16:47:00.199Z,48
2023-10-03T16:52:30.647Z,48
2023-10-03T16:58:03.927Z,47.5
2023-10-03T17:03:30.927Z,47.5
2023-10-03T17:09:01.204Z,47.5
2023-10-03T17:14:31.575Z,47.5
2023-10-03T17:20:01.077Z,47.5
2023-10-03T17:25:31.525Z,47
2023-10-03T17:31:02.149Z,47
2023-10-03T17:36:31.606Z,47
2023-10-03T17:42:02.132Z,47
2023-10-03T17:47:31.611Z,47
2023-10-03T17:53:02.058Z,47
2023-10-03T17:58:32.558Z,47
2023-10-03T18:04:03.204Z,46.5
2023-10-03T18:09:33.544Z,46.5
2023-10-03T18:15:03.059Z,46.5
2023-10-03T18:20:33.680Z,46.5
2023-10-03T18:26:02.960Z,46
2023-10-03T18:31:33.444Z,45.5
2023-10-03T18:37:03.905Z,45.5
2023-10-03T18:42:33.548Z,45
2023-10-03T18:48:04.096Z,45
2023-10-03T18:53:33.475Z,44.5
2023-10-03T18:59:03.975Z,44
2023-10-03T19:04:34.502Z,44
2023-10-03T19:10:04.918Z,44
2023-10-03T19:15:34.410Z,44.5
2023-10-03T19:21:04.934Z,44.5
2023-10-03T19:26:35.348Z,44.5
2023-10-03T19:32:04.860Z,45
2023-10-03T19:37:35.324Z,44.5
2023-10-03T19:43:05.806Z,44.5
2023-10-03T19:48:35.366Z,44
2023-10-03T19:54:05.750Z,44.5
2023-10-03T19:59:36.215Z,45
2023-10-03T20:05:06.742Z,44
2023-10-03T20:10:36.219Z,44
2023-10-03T20:16:06.704Z,44
2023-10-03T20:21:37.142Z,43.5
2023-10-03T20:27:06.664Z,43.5
2023-10-03T20:32:37.143Z,44
2023-10-03T20:38:07.607Z,43
2023-10-03T20:43:37.071Z,43.5
2023-10-03T20:49:07.538Z,43.5
2023-10-03T20:54:38.031Z,43
2023-10-03T21:00:07.571Z,43
2023-10-03T21:05:40.166Z,42.5
2023-10-03T21:11:08.483Z,43
2023-10-03T21:16:38.026Z,43
2023-10-03T21:22:08.430Z,43
2023-10-03T21:27:39.070Z,42.5
2023-10-03T21:33:08.516Z,43
2023-10-03T21:38:38.878Z,43
2023-10-03T21:44:08.369Z,42.5
2023-10-03T21:49:38.924Z,42.5
2023-10-03T21:55:09.314Z,43
2023-10-03T22:00:38.811Z,42.5
2023-10-03T22:06:09.304Z,42
2023-10-03T22:11:38.760Z,42.5
2023-10-03T22:17:09.234Z,43
2023-10-03T22:22:39.707Z,43
2023-10-03T22:28:09.207Z,43
2023-10-03T22:33:39.713Z,42
2023-10-03T22:39:10.236Z,42.5
2023-10-03T22:44:40.616Z,43
2023-10-03T22:50:10.186Z,42
2023-10-03T22:55:40.598Z,42.5
2023-10-03T23:01:11.103Z,42
2023-10-03T23:06:40.575Z,42
2023-10-03T23:12:11.060Z,42
2023-10-03T23:17:41.568Z,42
2023-10-03T23:23:11.022Z,42
2023-10-03T23:28:41.492Z,41.5
2023-10-03T23:34:11.932Z,41.5
2023-10-03T23:39:41.533Z,41.5
2023-10-03T23:45:11.922Z,42
2023-10-03T23:50:42.389Z,41.5
2023-10-03T23:56:12.983Z,41.5
